Time;durP1;ratioP1;P1;durP2;ratioP2;P2;SDS_P1;SDS_P2;PMS_P1;PMS_P2;Temp;Humidity;BMP_temperature;BMP_pressure;BME280_temperature;BME280_humidity;BME280_pressure;Samples;Min_cycle;Max_cycle;Signal;HPM_P1;HPM_P2
2022/11/08 00:01:42;;;;;;;12.00;3.00;;;13.80;99.90;;;;;;5080193;28;20127;-62
2022/11/08 00:04:12;;;;;;;9.85;3.00;;;13.80;99.90;;;;;;5042570;28;20136;-63
2022/11/08 00:14:52;;;;;;;;;;;13.70;99.90;;;;;;5067645;28;20066;-63
2022/11/08 00:17:19;;;;;;;9.68;2.80;;;13.70;99.90;;;;;;5047271;28;20357;-64
2022/11/08 00:19:45;;;;;;;12.00;3.70;;;13.80;99.90;;;;;;5064372;28;20033;-63
2022/11/08 00:22:12;;;;;;;11.77;3.28;;;13.70;99.90;;;;;;5082110;28;20385;-63
2022/11/08 00:24:37;;;;;;;10.38;2.63;;;13.60;99.90;;;;;;5065045;28;20036;-63
2022/11/08 00:27:06;;;;;;;8.90;2.85;;;13.60;99.90;;;;;;5065032;28;20086;-62
2022/11/08 00:29:34;;;;;;;10.63;2.95;;;13.50;99.90;;;;;;5077245;28;20395;-64
2022/11/08 00:32:00;;;;;;;11.00;2.95;;;13.50;99.90;;;;;;5067300;28;20421;-64
2022/11/08 00:34:26;;;;;;;10.38;2.90;;;13.40;99.90;;;;;;5063496;28;20381;-63
2022/11/08 00:36:52;;;;;;;13.35;3.47;;;13.30;99.90;;;;;;5062257;28;20037;-63
2022/11/08 00:39:18;;;;;;;9.77;2.95;;;13.30;99.90;;;;;;5061825;28;20136;-63
2022/11/08 00:41:44;;;;;;;13.68;3.45;;;13.30;99.90;;;;;;5066905;28;20368;-63
2022/11/08 00:44:10;;;;;;;12.88;3.15;;;13.20;99.90;;;;;;5061114;28;20044;-63
2022/11/08 00:46:36;;;;;;;10.70;3.08;;;13.10;99.90;;;;;;5066769;28;20036;-64
2022/11/08 00:49:02;;;;;;;10.15;3.33;;;13.00;99.90;;;;;;5058781;28;20059;-63
2022/11/08 00:51:28;;;;;;;11.25;2.70;;;13.00;99.90;;;;;;5066861;28;20078;-62
2022/11/08 00:53:53;;;;;;;8.07;3.08;;;12.90;99.90;;;;;;5080041;28;20037;-64
2022/11/08 00:56:19;;;;;;;10.02;2.90;;;12.90;99.90;;;;;;5062831;28;20088;-65
2022/11/08 00:58:44;;;;;;;10.77;3.17;;;12.80;99.90;;;;;;5084026;28;20469;-64
2022/11/08 01:01:12;;;;;;;8.52;2.85;;;12.80;99.90;;;;;;5079962;28;20063;-63
2022/11/08 01:03:38;;;;;;;10.70;2.85;;;12.80;99.90;;;;;;5061617;28;20055;-62
2022/11/08 01:06:06;;;;;;;7.97;3.13;;;12.70;99.90;;;;;;5058187;28;20044;-63
2022/11/08 01:08:31;;;;;;;10.95;3.60;;;12.70;99.90;;;;;;5078273;28;20115;-63
2022/11/08 01:11:01;;;;;;;11.50;3.60;;;12.70;99.90;;;;;;5085417;28;20452;-63
2022/11/08 01:13:27;;;;;;;10.75;2.70;;;12.70;99.90;;;;;;5060559;28;20043;-64
2022/11/08 01:15:53;;;;;;;10.00;2.70;;;12.70;99.90;;;;;;5062927;28;20032;-64
2022/11/08 01:18:18;;;;;;;11.68;3.35;;;12.70;99.90;;;;;;5063096;28;20091;-64
2022/11/08 01:20:46;;;;;;;10.88;3.08;;;12.70;99.90;;;;;;5065757;28;20040;-63
2022/11/08 01:23:12;;;;;;;6.78;2.33;;;12.70;99.90;;;;;;5062621;28;20051;-63
2022/11/08 01:25:41;;;;;;;10.65;3.13;;;12.70;99.90;;;;;;5058684;28;20048;-63
2022/11/08 01:28:06;;;;;;;9.98;3.10;;;12.70;99.90;;;;;;5040611;28;20036;-63
2022/11/08 01:30:36;;;;;;;8.35;2.80;;;12.70;99.90;;;;;;5063714;28;20380;-64
2022/11/08 01:33:02;;;;;;;11.20;2.70;;;12.70;99.90;;;;;;5065806;28;20044;-63
2022/11/08 01:35:30;;;;;;;9.98;3.30;;;12.70;99.90;;;;;;5061404;28;20039;-64
2022/11/08 01:37:56;;;;;;;11.00;3.05;;;12.80;99.90;;;;;;5086748;28;20431;-63
2022/11/08 01:40:22;;;;;;;8.93;2.60;;;12.70;99.90;;;;;;5104817;28;20101;-63
2022/11/08 01:42:47;;;;;;;9.63;2.95;;;12.70;99.90;;;;;;5083857;28;20094;-64
2022/11/08 01:45:13;;;;;;;12.55;3.38;;;12.70;99.90;;;;;;5084120;28;20053;-63
2022/11/08 01:47:38;;;;;;;8.93;3.00;;;12.70;99.90;;;;;;5066086;28;20040;-63
2022/11/08 01:50:06;;;;;;;9.88;2.92;;;12.70;99.90;;;;;;5103441;28;20054;-63
2022/11/08 01:52:38;;;;;;;12.88;3.53;;;12.70;99.90;;;;;;5082517;28;20078;-65
2022/11/08 01:55:22;;;;;;;9.98;3.13;;;12.70;99.90;;;;;;5083126;28;20040;-63
2022/11/08 01:57:59;;;;;;;9.30;3.08;;;12.60;99.90;;;;;;5101160;28;20065;-64
2022/11/08 02:00:24;;;;;;;9.88;2.90;;;12.50;99.90;;;;;;5099225;28;20080;-63
2022/11/08 02:02:59;;;;;;;10.80;3.28;;;12.50;99.90;;;;;;5080375;28;20093;-65
2022/11/08 02:05:27;;;;;;;12.63;3.25;;;12.50;99.90;;;;;;5081853;28;20042;-63
2022/11/08 02:07:55;;;;;;;9.45;3.03;;;12.40;99.90;;;;;;5068653;28;20516;-62
2022/11/08 02:10:25;;;;;;;10.82;3.20;;;12.40;99.90;;;;;;5083117;28;20050;-64
2022/11/08 02:12:52;;;;;;;11.73;2.90;;;12.30;99.90;;;;;;5083195;28;20032;-64
2022/11/08 02:15:20;;;;;;;10.73;2.72;;;12.30;99.90;;;;;;5101902;28;20035;-62
2022/11/08 02:17:45;;;;;;;10.68;3.17;;;12.30;99.90;;;;;;5096262;28;20044;-62
2022/11/08 02:20:11;;;;;;;10.05;2.90;;;12.20;99.90;;;;;;5079856;28;20038;-65
2022/11/08 02:22:55;;;;;;;13.38;3.67;;;12.20;99.90;;;;;;5083971;28;20044;-63
2022/11/08 02:25:21;;;;;;;10.07;3.10;;;12.20;99.90;;;;;;5084185;28;20104;-63
2022/11/08 02:27:46;;;;;;;12.85;3.22;;;12.10;99.90;;;;;;5080918;28;20098;-62
2022/11/08 02:30:12;;;;;;;13.93;3.60;;;12.10;99.90;;;;;;5097274;28;20043;-65
2022/11/08 02:32:39;;;;;;;10.45;2.90;;;12.00;99.90;;;;;;5098654;28;20050;-63
2022/11/08 02:35:09;;;;;;;13.00;3.30;;;12.00;99.90;;;;;;5080109;28;20051;-62
2022/11/08 02:37:35;;;;;;;8.45;2.80;;;12.00;99.90;;;;;;5088112;28;20355;-63
2022/11/08 02:40:01;;;;;;;11.85;3.25;;;12.00;99.90;;;;;;5080632;28;20070;-64
2022/11/08 02:42:26;;;;;;;8.85;3.38;;;12.00;99.90;;;;;;5102577;28;20040;-63
2022/11/08 02:44:52;;;;;;;11.40;3.25;;;11.90;99.90;;;;;;5082764;28;20044;-63
2022/11/08 02:47:18;;;;;;;13.48;3.10;;;11.90;99.90;;;;;;5063922;28;20050;-62
2022/11/08 02:49:43;;;;;;;10.15;2.75;;;11.80;99.90;;;;;;5085844;28;20027;-64
2022/11/08 02:52:09;;;;;;;9.15;3.28;;;11.80;99.90;;;;;;5079068;28;20481;-62
2022/11/08 02:54:35;;;;;;;10.02;3.58;;;11.80;99.90;;;;;;5085211;28;20027;-63
2022/11/08 02:57:00;;;;;;;11.32;3.40;;;11.80;99.90;;;;;;5089419;28;20085;-62
2022/11/08 02:59:26;;;;;;;9.93;3.17;;;11.80;99.90;;;;;;5087371;28;20111;-63
2022/11/08 03:01:53;;;;;;;10.00;3.40;;;11.80;99.90;;;;;;5087160;28;20044;-64
2022/11/08 03:04:18;;;;;;;10.30;3.33;;;11.70;99.90;;;;;;5085122;28;20177;-62
2022/11/08 03:06:44;;;;;;;9.27;2.90;;;11.70;99.90;;;;;;5065528;28;20441;-63
2022/11/08 03:09:10;;;;;;;11.77;3.10;;;11.70;99.90;;;;;;5084730;28;20028;-62
2022/11/08 03:11:36;;;;;;;6.47;2.63;;;11.70;99.90;;;;;;5087498;28;20499;-68
2022/11/08 03:14:01;;;;;;;12.23;3.53;;;11.70;99.90;;;;;;5084514;28;20063;-64
2022/11/08 03:16:28;;;;;;;10.95;3.67;;;11.70;99.90;;;;;;5086767;28;20036;-62
2022/11/08 03:18:54;;;;;;;7.72;3.13;;;11.70;99.90;;;;;;5106273;28;20038;-64
2022/11/08 03:21:19;;;;;;;9.38;3.28;;;11.70;99.90;;;;;;5084248;28;20036;-63
2022/11/08 03:23:45;;;;;;;8.88;3.03;;;11.70;99.90;;;;;;5085808;28;20049;-63
2022/11/08 03:26:10;;;;;;;11.13;3.42;;;11.60;99.90;;;;;;5068141;28;20032;-62
2022/11/08 03:28:36;;;;;;;12.88;3.40;;;11.60;99.90;;;;;;5101455;28;20132;-62
2022/11/08 03:31:02;;;;;;;11.88;2.78;;;11.60;99.90;;;;;;5101841;28;20041;-61
2022/11/08 03:33:27;;;;;;;10.98;3.25;;;11.60;99.90;;;;;;5084143;28;20036;-62
2022/11/08 03:35:53;;;;;;;9.20;3.30;;;11.60;99.90;;;;;;5083645;28;20028;-64
2022/11/08 03:38:19;;;;;;;8.93;3.00;;;11.60;99.90;;;;;;5087545;28;20046;-62
2022/11/08 03:40:45;;;;;;;10.93;3.20;;;11.60;99.90;;;;;;5086926;28;20035;-63
2022/11/08 03:43:10;;;;;;;10.90;3.55;;;11.50;99.90;;;;;;5091336;28;20044;-63
2022/11/08 03:45:37;;;;;;;9.25;3.10;;;11.60;99.90;;;;;;5084269;28;20105;-62
2022/11/08 03:48:03;;;;;;;9.10;3.15;;;11.50;99.90;;;;;;5103370;28;20377;-62
2022/11/08 03:50:28;;;;;;;10.35;2.97;;;11.50;99.90;;;;;;5065635;28;20119;-63
2022/11/08 03:52:55;;;;;;;10.15;3.38;;;11.50;99.90;;;;;;5085308;28;20044;-63
2022/11/08 03:55:23;;;;;;;9.35;2.97;;;11.60;99.90;;;;;;5108925;28;20131;-63
2022/11/08 03:57:50;;;;;;;9.05;2.95;;;11.50;99.90;;;;;;5106641;28;20100;-63
2022/11/08 04:00:21;;;;;;;7.55;2.78;;;11.60;99.90;;;;;;5079151;28;20050;-63
2022/11/08 04:02:48;;;;;;;11.23;3.30;;;11.60;99.90;;;;;;5085752;28;20066;-63
2022/11/08 04:05:14;;;;;;;8.40;2.67;;;11.60;99.90;;;;;;5085143;28;20161;-63
2022/11/08 04:07:40;;;;;;;8.65;2.90;;;11.60;99.90;;;;;;5103846;28;20068;-63
2022/11/08 04:10:07;;;;;;;7.30;3.10;;;11.60;99.90;;;;;;5086489;28;20065;-63
2022/11/08 04:15:20;;;;;;;;;;;11.60;99.90;;;;;;5092266;28;20142;-63
2022/11/08 04:23:17;;;;;;;10.93;3.22;;;11.50;99.90;;;;;;5101046;28;20040;-63
2022/11/08 04:25:44;;;;;;;8.60;2.65;;;11.60;99.90;;;;;;5085588;28;20055;-64
2022/11/08 04:28:10;;;;;;;8.65;2.83;;;11.60;99.90;;;;;;5085207;28;20058;-64
2022/11/08 04:30:36;;;;;;;9.25;2.88;;;11.50;99.90;;;;;;5080072;28;20071;-64
2022/11/08 04:33:03;;;;;;;9.63;3.13;;;11.40;99.90;;;;;;5081236;28;20512;-63
2022/11/08 04:35:30;;;;;;;9.05;2.70;;;11.50;99.90;;;;;;5104878;28;20093;-63
2022/11/08 04:38:00;;;;;;;8.20;2.75;;;11.50;99.90;;;;;;5105312;28;20040;-63
2022/11/08 04:40:27;;;;;;;7.80;2.53;;;11.40;99.90;;;;;;5051564;28;20051;-61
2022/11/08 04:42:52;;;;;;;13.32;3.40;;;11.40;99.90;;;;;;5104768;28;20051;-62
2022/11/08 04:45:18;;;;;;;8.00;3.03;;;11.30;99.90;;;;;;5105595;28;20119;-62
2022/11/08 04:47:47;;;;;;;9.43;2.72;;;11.30;99.90;;;;;;5097787;28;20044;-64
2022/11/08 04:50:13;;;;;;;9.85;3.25;;;11.30;99.90;;;;;;5082863;28;20108;-63
2022/11/08 04:52:39;;;;;;;10.75;3.30;;;11.30;99.90;;;;;;5081184;28;20040;-63
2022/11/08 04:55:06;;;;;;;8.95;2.90;;;11.20;99.90;;;;;;5080267;28;20478;-63
2022/11/08 04:57:32;;;;;;;9.10;3.10;;;11.20;99.90;;;;;;5065816;28;20074;-63
2022/11/08 04:59:57;;;;;;;6.47;2.65;;;11.20;99.90;;;;;;5098694;28;20036;-63
2022/11/08 05:02:23;;;;;;;7.90;2.85;;;11.30;99.90;;;;;;5087678;28;20035;-64
2022/11/08 05:04:48;;;;;;;6.72;2.60;;;11.20;99.90;;;;;;5083684;28;20032;-63
2022/11/08 05:07:14;;;;;;;12.02;2.78;;;11.20;99.90;;;;;;5084452;28;20031;-63
2022/11/08 05:09:39;;;;;;;8.40;2.70;;;11.20;99.90;;;;;;5082927;28;20122;-63
2022/11/08 05:12:05;;;;;;;6.72;2.50;;;11.20;99.90;;;;;;5085526;28;20108;-62
2022/11/08 05:14:31;;;;;;;10.30;3.10;;;11.20;99.90;;;;;;5103496;28;20071;-64
2022/11/08 05:16:56;;;;;;;8.35;3.00;;;11.20;99.90;;;;;;5083230;28;20046;-63
2022/11/08 05:24:52;;;;;;;6.90;2.58;;;11.10;99.90;;;;;;5093683;28;20064;-63
2022/11/08 05:27:17;;;;;;;6.53;2.85;;;11.10;99.90;;;;;;5083958;28;20138;-64
2022/11/08 05:29:43;;;;;;;8.63;2.75;;;11.10;99.90;;;;;;5085468;28;20055;-64
2022/11/08 05:32:09;;;;;;;8.10;2.67;;;11.10;99.90;;;;;;5084712;28;20039;-63
2022/11/08 05:34:34;;;;;;;8.15;2.50;;;11.00;99.90;;;;;;5081918;28;20442;-63
2022/11/08 05:37:00;;;;;;;11.43;3.08;;;11.00;99.90;;;;;;5087556;28;20036;-63
2022/11/08 05:39:25;;;;;;;7.95;3.00;;;11.00;99.90;;;;;;5081474;28;20048;-63
2022/11/08 05:41:51;;;;;;;8.05;2.83;;;11.00;99.90;;;;;;5079207;28;20116;-65
2022/11/08 05:44:16;;;;;;;7.65;2.70;;;11.00;99.90;;;;;;5087063;28;20074;-64
2022/11/08 05:46:42;;;;;;;8.10;2.85;;;11.00;99.90;;;;;;5102988;28;20491;-64
2022/11/08 05:49:08;;;;;;;7.63;2.95;;;11.00;99.90;;;;;;5089657;28;20436;-64
2022/11/08 05:51:33;;;;;;;7.05;2.45;;;11.00;99.90;;;;;;5088459;28;20059;-64
2022/11/08 05:53:59;;;;;;;7.18;2.70;;;11.00;99.90;;;;;;5091087;28;20143;-63
2022/11/08 05:56:24;;;;;;;4.13;2.40;;;11.00;99.90;;;;;;5083435;28;20084;-64
2022/11/08 05:58:50;;;;;;;5.95;2.70;;;11.00;99.90;;;;;;5102497;28;20055;-63
2022/11/08 06:01:17;;;;;;;6.95;2.58;;;10.90;99.90;;;;;;5086354;28;20043;-66
2022/11/08 06:03:44;;;;;;;8.13;2.30;;;10.90;99.90;;;;;;5086021;28;20103;-64
2022/11/08 06:06:12;;;;;;;7.53;2.72;;;10.90;99.90;;;;;;5099942;28;20464;-63
2022/11/08 06:08:39;;;;;;;8.63;2.85;;;10.90;99.90;;;;;;5102524;28;20152;-63
2022/11/08 06:11:09;;;;;;;7.28;2.60;;;10.90;99.90;;;;;;5065235;28;20124;-65
2022/11/08 06:13:41;;;;;;;10.85;3.00;;;10.90;99.90;;;;;;5102433;28;20429;-65
2022/11/08 06:16:13;;;;;;;8.05;2.95;;;10.90;99.90;;;;;;5098626;28;20028;-63
2022/11/08 06:18:40;;;;;;;6.93;2.50;;;10.90;99.90;;;;;;5106115;28;20071;-65
2022/11/08 06:21:07;;;;;;;6.80;2.60;;;10.90;99.90;;;;;;5101067;28;20460;-63
2022/11/08 06:23:33;;;;;;;5.63;2.78;;;10.90;99.90;;;;;;5106727;28;20043;-63
2022/11/08 06:25:59;;;;;;;8.60;2.67;;;10.90;99.90;;;;;;5095040;28;20040;-66
2022/11/08 06:28:26;;;;;;;6.85;2.63;;;10.90;99.90;;;;;;5102744;28;20209;-67
2022/11/08 06:30:53;;;;;;;8.15;2.53;;;10.90;99.90;;;;;;5083994;28;20044;-63
2022/11/08 06:33:20;;;;;;;7.88;2.80;;;11.00;99.90;;;;;;5107171;28;20032;-64
2022/11/08 06:35:46;;;;;;;6.60;2.70;;;11.10;99.90;;;;;;5109554;28;20028;-63
2022/11/08 06:38:12;;;;;;;8.15;2.72;;;11.10;99.90;;;;;;5113374;28;20052;-64
2022/11/08 06:40:38;;;;;;;5.93;2.50;;;11.10;99.90;;;;;;5108470;28;20115;-64
2022/11/08 06:43:04;;;;;;;7.68;3.00;;;11.20;99.90;;;;;;5107174;28;20073;-63
2022/11/08 06:45:30;;;;;;;5.25;2.53;;;11.20;99.90;;;;;;5102374;28;20144;-63
2022/11/08 06:48:00;;;;;;;8.48;2.88;;;11.20;99.90;;;;;;5111593;28;20434;-64
2022/11/08 06:50:27;;;;;;;6.82;2.53;;;11.30;99.90;;;;;;5100766;28;20169;-64
2022/11/08 06:53:03;;;;;;;7.55;2.88;;;11.30;99.90;;;;;;5099540;28;20044;-65
2022/11/08 06:55:30;;;;;;;8.32;2.75;;;11.30;99.90;;;;;;5102478;28;20485;-64
2022/11/08 06:57:56;;;;;;;8.70;2.80;;;11.40;99.90;;;;;;5082510;28;20432;-63
2022/11/08 07:00:22;;;;;;;5.13;2.50;;;11.40;99.90;;;;;;5109998;28;20123;-63
2022/11/08 07:02:52;;;;;;;6.72;2.90;;;11.40;99.90;;;;;;5102265;28;20043;-64
2022/11/08 07:05:18;;;;;;;9.05;2.70;;;11.40;99.90;;;;;;5089598;28;20075;-64
2022/11/08 07:07:44;;;;;;;6.20;2.85;;;11.50;99.90;;;;;;5080181;28;20098;-65
2022/11/08 07:10:10;;;;;;;8.40;3.22;;;11.40;99.90;;;;;;5106072;28;20376;-63
2022/11/08 07:12:35;;;;;;;6.47;2.90;;;11.50;99.90;;;;;;5109409;28;20413;-64
2022/11/08 07:15:01;;;;;;;5.90;3.08;;;11.50;99.90;;;;;;5101843;28;20645;-67
2022/11/08 07:17:27;;;;;;;5.70;2.85;;;11.50;99.90;;;;;;5087944;28;20129;-63
2022/11/08 07:19:52;;;;;;;7.93;3.22;;;11.50;99.90;;;;;;5102556;28;20028;-63
2022/11/08 07:22:18;;;;;;;7.28;3.45;;;11.60;99.90;;;;;;5084959;28;20044;-63
2022/11/08 07:24:43;;;;;;;6.70;3.00;;;11.60;99.90;;;;;;5101939;28;20032;-64
2022/11/08 07:27:09;;;;;;;7.00;3.17;;;11.60;99.90;;;;;;5102712;28;20056;-63
2022/11/08 07:29:35;;;;;;;6.85;2.95;;;11.70;99.90;;;;;;5106699;28;20101;-64
2022/11/08 07:32:00;;;;;;;9.73;3.50;;;11.70;99.90;;;;;;5098491;28;20040;-63
2022/11/08 07:34:26;;;;;;;8.98;3.75;;;11.70;99.90;;;;;;5103503;28;20460;-64
2022/11/08 07:36:51;;;;;;;7.32;3.00;;;11.80;99.90;;;;;;5082013;28;20346;-66
2022/11/08 07:39:17;;;;;;;10.25;3.38;;;11.80;99.90;;;;;;5086988;28;20459;-63
2022/11/08 07:41:43;;;;;;;8.57;3.38;;;11.90;99.90;;;;;;5076907;28;20043;-65
2022/11/08 07:44:09;;;;;;;7.18;3.35;;;11.90;99.90;;;;;;5079310;28;20043;-64
2022/11/08 07:46:34;;;;;;;8.27;3.38;;;11.90;99.90;;;;;;5085209;28;20047;-64
2022/11/08 07:49:00;;;;;;;8.95;3.60;;;11.90;99.90;;;;;;5084712;28;20037;-63
2022/11/08 07:51:25;;;;;;;7.40;3.20;;;12.00;99.90;;;;;;5051912;28;20100;-63
2022/11/08 07:53:51;;;;;;;7.93;3.00;;;12.10;99.90;;;;;;5078711;28;20150;-67
2022/11/08 07:56:16;;;;;;;8.63;3.58;;;12.10;99.90;;;;;;5080879;28;20048;-64
2022/11/08 07:58:42;;;;;;;11.13;3.60;;;12.10;99.90;;;;;;5078817;28;20047;-66
2022/11/08 08:01:07;;;;;;;8.00;3.42;;;12.20;99.90;;;;;;5085118;28;20036;-63
2022/11/08 08:03:33;;;;;;;8.13;3.30;;;12.20;99.90;;;;;;5085425;28;20036;-66
2022/11/08 08:05:58;;;;;;;8.13;3.50;;;12.30;99.90;;;;;;5077836;28;20079;-64
2022/11/08 08:08:24;;;;;;;7.85;3.55;;;12.30;99.90;;;;;;5086332;28;20474;-64
2022/11/08 08:10:50;;;;;;;8.85;3.92;;;12.40;99.90;;;;;;5078811;28;20037;-66
2022/11/08 08:13:16;;;;;;;6.97;3.13;;;12.40;99.90;;;;;;5081149;28;20630;-63
2022/11/08 08:15:41;;;;;;;5.60;3.17;;;12.50;99.90;;;;;;5078844;28;20071;-64
2022/11/08 08:18:07;;;;;;;7.13;3.22;;;12.50;99.90;;;;;;5061814;28;20052;-64
2022/11/08 08:20:35;;;;;;;6.25;3.17;;;12.60;99.90;;;;;;5090047;28;20355;-63
2022/11/08 08:23:01;;;;;;;6.53;2.85;;;12.60;99.90;;;;;;5085712;28;20056;-64
2022/11/08 08:25:29;;;;;;;9.00;3.85;;;12.60;99.90;;;;;;5064866;28;20386;-64
2022/11/08 08:27:56;;;;;;;9.45;4.65;;;12.70;99.90;;;;;;5081076;28;20478;-66
2022/11/08 08:30:24;;;;;;;11.02;4.20;;;12.70;99.90;;;;;;5081300;28;20052;-64
2022/11/08 08:32:50;;;;;;;6.55;3.67;;;12.80;99.90;;;;;;5085000;28;20901;-65
2022/11/08 08:35:16;;;;;;;6.97;3.05;;;12.80;99.90;;;;;;5079813;28;20058;-64
2022/11/08 08:37:41;;;;;;;7.38;3.28;;;12.90;99.90;;;;;;5081969;28;20364;-65
2022/11/08 08:40:09;;;;;;;7.15;2.60;;;12.80;99.90;;;;;;5094056;28;20056;-63
2022/11/08 08:42:35;;;;;;;5.80;2.80;;;12.90;99.90;;;;;;5106769;28;20042;-65
2022/11/08 08:45:00;;;;;;;6.15;2.70;;;12.90;99.90;;;;;;5103932;28;20115;-65
2022/11/08 08:47:27;;;;;;;7.43;3.10;;;13.00;99.90;;;;;;5103371;28;20024;-64
2022/11/08 08:49:52;;;;;;;6.03;2.85;;;13.10;99.90;;;;;;5068227;28;20040;-64
2022/11/08 08:52:18;;;;;;;5.45;2.50;;;13.10;99.90;;;;;;5075681;28;20040;-64
2022/11/08 08:54:44;;;;;;;6.25;2.70;;;13.20;99.90;;;;;;5097689;28;20478;-65
2022/11/08 08:57:09;;;;;;;5.30;2.67;;;13.30;99.90;;;;;;5108056;28;20035;-63
2022/11/08 08:59:35;;;;;;;6.63;2.55;;;13.30;99.90;;;;;;5107578;28;20333;-67
2022/11/08 09:02:00;;;;;;;4.65;2.60;;;13.30;99.90;;;;;;5108222;28;20036;-66
2022/11/08 09:04:27;;;;;;;6.07;2.63;;;13.30;99.90;;;;;;5108193;28;20050;-65
2022/11/08 09:06:53;;;;;;;5.18;2.30;;;13.40;99.90;;;;;;5096509;28;20409;-65
2022/11/08 09:09:19;;;;;;;6.35;2.42;;;13.40;99.90;;;;;;5103496;28;20039;-64
2022/11/08 09:11:45;;;;;;;6.72;2.20;;;13.50;99.90;;;;;;5101734;28;20601;-64
2022/11/08 09:14:10;;;;;;;5.57;2.53;;;13.50;99.90;;;;;;5097918;28;20089;-68
2022/11/08 09:16:36;;;;;;;5.30;2.20;;;13.50;99.90;;;;;;5092844;28;20118;-63
2022/11/08 09:19:01;;;;;;;3.97;2.25;;;13.60;99.90;;;;;;5109234;28;20345;-63
2022/11/08 09:21:27;;;;;;;2.97;1.92;;;13.70;99.90;;;;;;5108257;28;20032;-64
2022/11/08 09:23:52;;;;;;;6.03;2.47;;;13.70;99.90;;;;;;5105373;28;20044;-64
2022/11/08 09:26:18;;;;;;;4.72;2.10;;;13.70;99.90;;;;;;5099648;28;20040;-64
2022/11/08 09:28:44;;;;;;;4.70;2.25;;;13.80;99.90;;;;;;5095841;28;20044;-65
2022/11/08 09:31:11;;;;;;;4.50;2.45;;;13.70;99.90;;;;;;5108668;28;20039;-63
2022/11/08 09:33:38;;;;;;;5.38;2.20;;;13.70;99.90;;;;;;5097306;28;20055;-64
2022/11/08 09:36:05;;;;;;;5.53;2.40;;;13.70;99.90;;;;;;5100664;28;20024;-65
2022/11/08 09:38:31;;;;;;;6.78;2.42;;;13.80;99.90;;;;;;5092404;28;20048;-64
2022/11/08 09:41:05;;;;;;;5.05;2.50;;;13.80;99.90;;;;;;5061012;28;20135;-64
2022/11/08 09:43:41;;;;;;;6.35;2.38;;;13.70;99.90;;;;;;5078184;28;20051;-66
2022/11/08 09:46:10;;;;;;;5.70;2.55;;;13.70;99.90;;;;;;5080852;28;20040;-65
2022/11/08 09:48:41;;;;;;;6.32;2.50;;;13.70;99.90;;;;;;5078564;28;20040;-64
2022/11/08 09:51:14;;;;;;;5.57;2.50;;;13.70;99.90;;;;;;5081043;28;20044;-64
2022/11/08 09:53:48;;;;;;;4.97;2.65;;;13.70;99.90;;;;;;5084635;28;20047;-63
2022/11/08 09:56:22;;;;;;;4.35;2.10;;;13.70;99.90;;;;;;5067084;28;20067;-63
2022/11/08 09:58:54;;;;;;;5.10;2.55;;;13.70;99.90;;;;;;5086619;28;20059;-63
2022/11/08 10:01:21;;;;;;;4.20;2.40;;;13.70;99.90;;;;;;5067619;28;20402;-62
2022/11/08 10:03:51;;;;;;;4.50;2.30;;;13.80;99.90;;;;;;5080664;28;20090;-65
2022/11/08 10:06:43;;;;;;;4.63;2.22;;;13.80;99.90;;;;;;5074954;28;20482;-63
2022/11/08 10:09:29;;;;;;;4.65;2.20;;;13.80;99.90;;;;;;5079804;28;20457;-64
2022/11/08 10:12:19;;;;;;;4.45;2.03;;;13.90;99.90;;;;;;5081025;28;20252;-63
2022/11/08 10:15:03;;;;;;;6.28;2.40;;;13.90;99.90;;;;;;5081134;28;20349;-63
2022/11/08 10:18:03;;;;;;;7.05;2.47;;;13.90;99.90;;;;;;5055798;28;20040;-63
2022/11/08 10:20:34;;;;;;;5.03;2.20;;;13.90;99.90;;;;;;5085916;28;20040;-63
2022/11/08 10:23:00;;;;;;;4.88;2.10;;;13.90;99.90;;;;;;5057581;28;20052;-63
2022/11/08 10:25:35;;;;;;;5.50;2.60;;;14.00;99.90;;;;;;5079183;28;20341;-63
2022/11/08 10:28:03;;;;;;;5.00;2.25;;;13.90;99.90;;;;;;5062050;28;20042;-63
2022/11/08 10:30:36;;;;;;;5.20;2.47;;;13.90;99.90;;;;;;5081834;28;20042;-63
2022/11/08 10:33:31;;;;;;;5.15;2.17;;;13.90;99.90;;;;;;5085822;28;20051;-62
2022/11/08 10:36:00;;;;;;;5.22;2.72;;;13.80;99.90;;;;;;5081392;28;20123;-64
2022/11/08 10:38:35;;;;;;;3.78;2.08;;;13.80;99.90;;;;;;5086987;28;20047;-66
2022/11/08 10:41:23;;;;;;;4.18;2.03;;;13.80;99.90;;;;;;5097406;28;20379;-63
2022/11/08 10:43:57;;;;;;;6.45;2.20;;;13.80;99.90;;;;;;5082167;28;20055;-63
2022/11/08 10:46:29;;;;;;;4.05;2.10;;;13.80;99.90;;;;;;5097445;28;20039;-65
2022/11/08 10:49:04;;;;;;;4.75;2.10;;;13.80;99.90;;;;;;5107147;28;20058;-63
2022/11/08 10:51:29;;;;;;;4.47;2.38;;;13.80;99.90;;;;;;5105364;28;20055;-63
2022/11/08 10:53:55;;;;;;;5.78;2.15;;;13.80;99.90;;;;;;5097313;28;20074;-63
2022/11/08 10:56:23;;;;;;;5.30;2.00;;;13.90;99.90;;;;;;5099525;28;20353;-63
2022/11/08 10:58:49;;;;;;;3.65;2.08;;;13.90;99.90;;;;;;5097449;28;20424;-63
2022/11/08 11:01:17;;;;;;;4.90;2.35;;;14.00;99.90;;;;;;5098936;28;20131;-65
2022/11/08 11:03:44;;;;;;;6.07;2.20;;;14.10;99.90;;;;;;5102451;28;20126;-65
2022/11/08 11:06:29;;;;;;;4.45;2.03;;;14.20;99.90;;;;;;5098550;28;20028;-62
2022/11/08 11:09:16;;;;;;;3.35;1.95;;;14.30;99.90;;;;;;5101213;28;20325;-65
2022/11/08 11:11:43;;;;;;;5.00;2.30;;;14.30;99.90;;;;;;5081480;28;20477;-64
2022/11/08 11:14:18;;;;;;;6.40;2.30;;;14.30;99.90;;;;;;5099029;28;20040;-62
2022/11/08 11:16:59;;;;;;;7.68;2.20;;;14.40;99.90;;;;;;5100982;28;20046;-64
2022/11/08 11:19:27;;;;;;;4.18;2.03;;;14.50;99.90;;;;;;5100868;28;20031;-63
2022/11/08 11:22:02;;;;;;;5.18;2.00;;;14.50;99.90;;;;;;5110137;28;20050;-63
2022/11/08 11:24:28;;;;;;;4.43;2.10;;;14.50;99.90;;;;;;5094559;28;20039;-62
2022/11/08 11:26:56;;;;;;;4.43;2.42;;;14.50;99.90;;;;;;5110182;28;20126;-64
2022/11/08 11:29:33;;;;;;;5.05;2.38;;;14.50;99.90;;;;;;5104454;28;20043;-63
2022/11/08 11:32:21;;;;;;;5.30;2.00;;;14.50;99.90;;;;;;5107454;28;20424;-63
2022/11/08 11:34:52;;;;;;;5.15;1.92;;;14.60;99.90;;;;;;5101322;28;20318;-64
2022/11/08 11:37:40;;;;;;;5.03;1.92;;;14.60;99.90;;;;;;5101109;28;20440;-63
2022/11/08 11:40:26;;;;;;;4.35;1.90;;;14.60;99.90;;;;;;5107760;28;20035;-63
2022/11/08 11:43:04;;;;;;;4.07;2.08;;;14.60;99.90;;;;;;5101016;28;20384;-63
2022/11/08 11:45:46;;;;;;;5.72;2.42;;;14.60;99.90;;;;;;5098031;28;20369;-64
2022/11/08 11:48:28;;;;;;;5.88;2.33;;;14.70;99.90;;;;;;5107680;28;20130;-63
2022/11/08 11:50:55;;;;;;;3.60;2.00;;;14.70;99.90;;;;;;5087002;28;20372;-63
2022/11/08 11:53:31;;;;;;;3.50;1.90;;;14.80;99.90;;;;;;5089868;28;20536;-63
2022/11/08 11:56:18;;;;;;;3.78;2.00;;;14.80;99.90;;;;;;5108491;28;20058;-63
2022/11/08 11:58:52;;;;;;;9.68;2.75;;;14.80;99.90;;;;;;5104575;28;20401;-63
2022/11/08 12:01:43;;;;;;;5.93;2.38;;;14.90;99.90;;;;;;5102105;28;20038;-63
2022/11/08 12:04:30;;;;;;;5.22;1.95;;;14.90;99.90;;;;;;5098504;28;20031;-64
2022/11/08 12:07:22;;;;;;;3.58;1.80;;;14.90;99.90;;;;;;5106471;28;20039;-63
2022/11/08 12:09:59;;;;;;;7.40;2.10;;;15.00;99.90;;;;;;5085458;28;20048;-63
2022/11/08 12:12:51;;;;;;;4.28;1.90;;;15.00;99.90;;;;;;5104830;28;20042;-64
2022/11/08 12:15:24;;;;;;;4.60;1.73;;;15.00;99.90;;;;;;5106628;28;20153;-63
2022/11/08 12:18:06;;;;;;;4.50;1.98;;;15.00;99.90;;;;;;5098866;28;20349;-65
2022/11/08 12:21:10;;;;;;;3.75;1.77;;;15.00;99.90;;;;;;5085968;28;20039;-64
2022/11/08 12:24:06;;;;;;;6.22;1.92;;;14.90;99.90;;;;;;5101916;28;20059;-63
2022/11/08 12:26:36;;;;;;;2.50;1.63;;;15.00;99.90;;;;;;5099946;28;20067;-64
2022/11/08 12:29:34;;;;;;;5.55;2.05;;;14.90;99.90;;;;;;5099420;28;20104;-64
2022/11/08 12:32:08;;;;;;;4.57;2.35;;;14.90;99.90;;;;;;5089881;28;20043;-63
2022/11/08 12:34:40;;;;;;;4.32;2.40;;;14.90;99.90;;;;;;5094955;28;20044;-64
2022/11/08 12:37:31;;;;;;;6.20;2.30;;;14.90;99.90;;;;;;5107768;28;20407;-64
2022/11/08 12:40:01;;;;;;;4.65;1.80;;;14.90;99.90;;;;;;5101414;28;20514;-63
2022/11/08 12:42:36;;;;;;;5.57;1.90;;;14.90;99.90;;;;;;5096465;28;20083;-64
2022/11/08 12:45:11;;;;;;;;;;;15.00;99.90;;;;;;5106034;28;20051;-64
2022/11/08 12:47:46;;;;;;;4.65;2.25;;;15.00;99.90;;;;;;5091566;28;20014;-65
2022/11/08 12:50:40;;;;;;;5.93;2.00;;;15.00;99.90;;;;;;5103519;28;20039;-64
2022/11/08 12:53:25;;;;;;;5.88;2.45;;;15.00;99.90;;;;;;5085866;28;20421;-63
2022/11/08 12:55:55;;;;;;;5.93;2.40;;;15.00;99.90;;;;;;5101816;28;20517;-66
2022/11/08 12:58:48;;;;;;;6.55;2.03;;;15.00;99.90;;;;;;5110330;28;20092;-65
2022/11/08 13:01:15;;;;;;;5.15;1.92;;;15.00;99.90;;;;;;5097294;28;20040;-64
2022/11/08 13:03:44;;;;;;;3.45;1.90;;;15.10;99.90;;;;;;5102311;28;20040;-65
2022/11/08 13:06:13;;;;;;;4.65;2.05;;;15.10;99.90;;;;;;5105740;28;20043;-64
2022/11/08 13:08:51;;;;;;;4.20;1.85;;;15.10;99.90;;;;;;5101530;28;20071;-64
2022/11/08 13:11:26;;;;;;;4.95;2.10;;;15.00;99.90;;;;;;5099628;28;20028;-64
2022/11/08 13:13:57;;;;;;;5.25;2.10;;;15.00;99.90;;;;;;5076937;28;20433;-67
2022/11/08 13:16:32;;;;;;;5.35;2.15;;;15.00;99.90;;;;;;5100121;28;20039;-64
2022/11/08 13:19:05;;;;;;;4.68;1.88;;;15.00;99.90;;;;;;5102699;28;20119;-63